createdAt,value
2023-01-21T00:01:00.712Z,87.20
2023-01-21T00:03:07.909Z,87.50
2023-01-21T00:05:14.917Z,87.70
2023-01-21T00:07:22.163Z,87.90
2023-01-21T00:09:29.126Z,88.10
2023-01-21T00:11:36.308Z,88.00
2023-01-21T00:13:43.457Z,87.70
2023-01-21T00:15:50.658Z,88.10
2023-01-21T00:17:59.336Z,88.50
2023-01-21T00:20:07.806Z,89.00
2023-01-21T00:22:14.725Z,89.10
2023-01-21T00:24:23.696Z,89.30
2023-01-21T00:26:30.677Z,89.50
2023-01-21T00:28:39.698Z,89.80
2023-01-21T00:30:46.919Z,90.30
2023-01-21T00:32:54.841Z,90.80
2023-01-21T00:35:03.649Z,90.70
2023-01-21T00:37:10.522Z,90.90
2023-01-21T00:39:17.647Z,90.70
2023-01-21T00:41:25.500Z,90.70
2023-01-21T00:43:32.890Z,90.50
2023-01-21T00:45:39.761Z,90.50
2023-01-21T00:47:47.099Z,90.30
2023-01-21T00:49:54.089Z,90.00
2023-01-21T00:52:03.091Z,89.80
2023-01-21T00:54:09.972Z,90.20
2023-01-21T00:56:17.614Z,90.30
2023-01-21T00:58:24.384Z,89.70
2023-01-21T01:00:31.721Z,89.90
2023-01-21T01:02:38.670Z,89.80
2023-01-21T01:04:46.033Z,89.40
2023-01-21T01:06:53.026Z,89.70
2023-01-21T01:09:02.345Z,89.60
2023-01-21T01:11:09.483Z,88.80
2023-01-21T01:13:16.591Z,88.60
2023-01-21T01:15:23.731Z,88.60
2023-01-21T01:17:30.965Z,88.40
2023-01-21T01:19:37.894Z,88.00
2023-01-21T01:21:45.022Z,87.60
2023-01-21T01:23:53.059Z,87.40
2023-01-21T01:26:03.486Z,87.10
2023-01-21T01:28:10.695Z,87.00
2023-01-21T01:30:18.348Z,87.60
2023-01-21T01:32:25.367Z,86.90
2023-01-21T01:34:32.563Z,86.50
2023-01-21T01:36:39.388Z,85.90
2023-01-21T01:38:46.985Z,85.50
2023-01-21T01:40:55.188Z,84.90
2023-01-21T01:43:04.159Z,85.00
2023-01-21T01:45:18.920Z,84.90
2023-01-21T01:47:28.964Z,84.20
2023-01-21T01:49:35.893Z,84.20
2023-01-21T01:51:50.794Z,83.60
2023-01-21T01:53:57.729Z,83.30
2023-01-21T01:56:05.682Z,82.10
2023-01-21T01:58:16.495Z,82.30
2023-01-21T02:00:24.347Z,81.60
2023-01-21T02:02:31.553Z,81.40
2023-01-21T02:04:43.979Z,80.70
2023-01-21T02:06:51.983Z,80.30
2023-01-21T02:09:00.234Z,79.40
2023-01-21T02:11:14.483Z,78.90
2023-01-21T02:13:22.997Z,78.90
2023-01-21T02:15:36.629Z,78.00
2023-01-21T02:17:57.296Z,78.30
2023-01-21T02:20:38.864Z,77.50
2023-01-21T02:22:53.883Z,77.40
2023-01-21T02:25:38.386Z,77.90
2023-01-21T02:28:07.896Z,76.50
2023-01-21T02:30:49.667Z,76.20
2023-01-21T02:33:33.935Z,76.20
2023-01-21T02:35:46.081Z,75.70
2023-01-21T02:37:56.413Z,75.60
2023-01-21T02:40:14.314Z,75.00
2023-01-21T02:42:29.912Z,75.30
2023-01-21T02:44:42.134Z,75.20
2023-01-21T02:46:51.704Z,75.50
2023-01-21T02:49:03.732Z,74.90
2023-01-21T02:51:10.736Z,75.10
2023-01-21T02:53:28.541Z,75.50
2023-01-21T02:55:38.997Z,73.70
2023-01-21T02:57:49.819Z,73.40
2023-01-21T02:59:59.507Z,73.70
2023-01-21T03:02:15.725Z,73.40
2023-01-21T03:04:45.409Z,72.80
2023-01-21T03:07:02.682Z,72.80
2023-01-21T03:09:17.383Z,72.60
2023-01-21T03:11:25.383Z,71.40
2023-01-21T03:13:53.817Z,72.10
2023-01-21T03:16:18.603Z,72.30
2023-01-21T03:18:31.836Z,71.00
2023-01-21T03:20:45.568Z,71.20
2023-01-21T03:22:56.362Z,70.50
2023-01-21T03:25:05.258Z,70.40
2023-01-21T03:27:13.101Z,70.20
2023-01-21T03:29:22.544Z,69.70
2023-01-21T03:31:31.850Z,68.80
2023-01-21T03:33:41.972Z,68.30
2023-01-21T03:35:53.606Z,68.20
2023-01-21T03:38:01.706Z,69.30
2023-01-21T03:40:19.880Z,69.70
2023-01-21T03:42:27.337Z,68.80
2023-01-21T03:44:34.495Z,68.30
2023-01-21T03:46:47.226Z,67.40
2023-01-21T03:48:56.355Z,67.40
2023-01-21T03:51:10.122Z,68.00
2023-01-21T03:53:17.278Z,67.20
2023-01-21T03:55:24.655Z,67.00
2023-01-21T03:57:31.581Z,66.20
2023-01-21T03:59:38.510Z,65.00
2023-01-21T04:01:45.524Z,65.40
2023-01-21T04:03:52.880Z,65.00
2023-01-21T04:05:59.645Z,65.00
2023-01-21T04:08:09.031Z,65.10
2023-01-21T04:10:16.628Z,64.80
2023-01-21T04:12:24.104Z,64.10
2023-01-21T04:14:31.033Z,65.10
2023-01-21T04:16:38.214Z,64.40
2023-01-21T04:18:45.070Z,63.60
2023-01-21T04:20:52.321Z,63.50
2023-01-21T04:22:59.195Z,63.40
2023-01-21T04:25:08.717Z,63.60
2023-01-21T04:27:15.509Z,63.10
2023-01-21T04:29:22.633Z,63.60
2023-01-21T04:31:29.532Z,62.70
2023-01-21T04:33:36.880Z,59.10
2023-01-21T04:35:43.911Z,60.70
2023-01-21T04:37:51.001Z,59.90
2023-01-21T04:39:57.926Z,60.20
2023-01-21T04:42:06.749Z,60.10
2023-01-21T04:44:13.621Z,60.40
2023-01-21T04:46:20.822Z,60.50
2023-01-21T04:48:27.625Z,60.00
2023-01-21T04:50:34.693Z,58.10
2023-01-21T04:52:41.537Z,57.30
2023-01-21T04:54:48.596Z,57.70
2023-01-21T04:56:55.723Z,59.10
2023-01-21T04:59:04.120Z,58.30
2023-01-21T05:01:11.256Z,57.20
2023-01-21T05:03:18.130Z,57.20
2023-01-21T05:05:25.119Z,57.60
2023-01-21T05:07:31.972Z,57.20
2023-01-21T05:09:38.856Z,56.40
2023-01-21T05:11:45.581Z,55.00
2023-01-21T05:13:52.553Z,56.00
2023-01-21T05:16:09.231Z,55.90
2023-01-21T05:18:16.512Z,56.30
2023-01-21T05:20:23.377Z,57.10
2023-01-21T05:22:33.029Z,56.20
2023-01-21T05:24:39.954Z,55.30
2023-01-21T05:26:47.083Z,55.40
2023-01-21T05:28:54.022Z,56.00
2023-01-21T05:31:06.218Z,55.40
2023-01-21T05:33:12.199Z,54.00
2023-01-21T05:35:21.141Z,53.70
2023-01-21T05:37:28.111Z,54.80
2023-01-21T05:39:35.242Z,54.40
2023-01-21T05:41:42.577Z,54.80
2023-01-21T05:43:49.634Z,53.80
2023-01-21T05:45:56.417Z,53.70
2023-01-21T05:48:05.354Z,54.40
2023-01-21T05:50:13.569Z,53.80
2023-01-21T05:52:20.738Z,54.30
2023-01-21T05:54:27.622Z,54.00
2023-01-21T05:56:34.693Z,53.60
2023-01-21T05:58:41.466Z,52.70
2023-01-21T06:00:49.403Z,52.20
2023-01-21T06:02:56.338Z,53.20
2023-01-21T06:05:05.414Z,54.20
2023-01-21T06:07:12.401Z,53.10
2023-01-21T06:09:19.520Z,53.40
2023-01-21T06:11:26.379Z,53.70
2023-01-21T06:13:33.526Z,53.50
2023-01-21T06:15:40.514Z,53.40
2023-01-21T06:17:47.786Z,53.90
2023-01-21T06:19:54.617Z,53.70
2023-01-21T06:22:03.433Z,53.20
2023-01-21T06:24:10.767Z,52.10
2023-01-21T06:26:17.906Z,52.30
2023-01-21T06:28:25.189Z,51.70
2023-01-21T06:30:32.569Z,51.80
2023-01-21T06:32:39.594Z,51.70
2023-01-21T06:34:46.867Z,52.30
2023-01-21T06:36:53.761Z,53.10
2023-01-21T06:39:02.473Z,50.60
2023-01-21T06:41:09.448Z,51.70
2023-01-21T06:43:16.635Z,51.10
2023-01-21T06:45:23.486Z,52.10
2023-01-21T06:47:30.581Z,52.40
2023-01-21T06:49:37.560Z,51.30
2023-01-21T06:51:44.894Z,51.10
2023-01-21T06:53:51.720Z,51.70
2023-01-21T06:56:00.552Z,52.00
2023-01-21T06:58:07.514Z,51.80
2023-01-21T07:00:16.505Z,51.20
2023-01-21T07:02:24.000Z,50.00
2023-01-21T07:04:31.376Z,49.50
2023-01-21T07:06:38.192Z,49.00
2023-01-21T07:08:45.528Z,49.60
2023-01-21T07:10:52.456Z,49.80
2023-01-21T07:13:01.267Z,50.50
2023-01-21T07:15:09.233Z,50.30
2023-01-21T07:17:17.452Z,49.60
2023-01-21T07:19:24.455Z,49.50
2023-01-21T07:21:31.990Z,49.10
2023-01-21T07:23:38.869Z,49.10
2023-01-21T07:25:46.345Z,49.30
2023-01-21T07:27:53.168Z,49.00
2023-01-21T07:30:02.303Z,49.30
2023-01-21T07:32:09.500Z,48.30
2023-01-21T07:34:16.575Z,49.10
2023-01-21T07:36:23.541Z,49.20
2023-01-21T07:38:31.293Z,48.20
2023-01-21T07:40:38.199Z,48.80
2023-01-21T07:42:45.344Z,48.00
2023-01-21T07:44:52.168Z,47.60
2023-01-21T07:47:00.940Z,47.70
2023-01-21T07:49:07.867Z,49.40
2023-01-21T07:51:17.925Z,49.40
2023-01-21T07:53:25.140Z,47.30
2023-01-21T07:55:32.358Z,46.70
2023-01-21T07:57:39.352Z,47.80
2023-01-21T07:59:46.267Z,47.50
2023-01-21T08:01:53.235Z,47.80
2023-01-21T08:04:02.634Z,47.00
2023-01-21T08:06:10.692Z,47.90
2023-01-21T08:08:17.606Z,46.90
2023-01-21T08:10:24.893Z,47.10
2023-01-21T08:12:31.825Z,47.30
2023-01-21T08:14:39.619Z,47.40
2023-01-21T08:16:46.546Z,47.20
2023-01-21T08:18:54.037Z,47.30
2023-01-21T08:21:02.995Z,46.90
2023-01-21T08:23:10.189Z,47.10
2023-01-21T08:25:17.220Z,47.30
2023-01-21T08:27:24.537Z,47.50
2023-01-21T08:29:31.429Z,47.90
2023-01-21T08:31:38.520Z,47.00
2023-01-21T08:33:45.392Z,46.80
2023-01-21T08:35:52.801Z,47.50
2023-01-21T08:38:01.485Z,46.40
2023-01-21T08:40:10.154Z,46.80
2023-01-21T08:42:17.077Z,47.00
2023-01-21T08:44:23.953Z,46.80
2023-01-21T08:46:31.236Z,46.80
2023-01-21T08:48:38.151Z,46.90
2023-01-21T08:50:45.148Z,47.00
2023-01-21T08:52:55.328Z,47.20
2023-01-21T08:55:03.903Z,46.30
2023-01-21T08:57:11.355Z,47.30
2023-01-21T08:59:18.477Z,46.70
2023-01-21T09:01:26.686Z,45.40
2023-01-21T09:03:33.502Z,45.80
2023-01-21T09:05:40.587Z,46.50
2023-01-21T09:07:48.239Z,46.60
2023-01-21T09:09:55.472Z,45.80
2023-01-21T09:12:03.969Z,46.20
2023-01-21T09:14:11.253Z,45.70
2023-01-21T09:16:19.820Z,46.90
2023-01-21T09:18:27.039Z,46.80
2023-01-21T09:20:33.877Z,46.40
2023-01-21T09:22:41.617Z,46.70
2023-01-21T09:24:48.575Z,47.20
2023-01-21T09:26:56.389Z,47.10
2023-01-21T09:29:05.417Z,47.40
2023-01-21T09:31:14.172Z,48.10
2023-01-21T09:33:21.008Z,48.60
2023-01-21T09:35:28.138Z,48.60
2023-01-21T09:37:38.186Z,48.40
2023-01-21T09:39:46.066Z,47.30
2023-01-21T09:41:55.475Z,46.90
2023-01-21T09:44:15.764Z,48.20
2023-01-21T09:46:32.620Z,48.60
2023-01-21T09:48:43.996Z,48.10
2023-01-21T09:50:53.813Z,47.70
2023-01-21T09:53:09.354Z,47.40
2023-01-21T09:55:20.391Z,47.80
2023-01-21T09:57:57.420Z,48.40
2023-01-21T10:00:21.096Z,48.40
2023-01-21T10:02:32.987Z,49.20
2023-01-21T10:04:49.283Z,49.30
2023-01-21T10:07:02.498Z,49.60
2023-01-21T10:09:36.561Z,50.10
2023-01-21T10:11:53.828Z,50.50
2023-01-21T10:14:13.506Z,50.40
2023-01-21T10:16:29.238Z,50.20
2023-01-21T10:18:40.668Z,50.10
2023-01-21T10:20:56.553Z,49.90
2023-01-21T10:23:09.112Z,49.90
2023-01-21T10:25:27.918Z,50.00
2023-01-21T10:27:39.089Z,50.40
2023-01-21T10:29:47.295Z,50.70
2023-01-21T10:32:01.643Z,51.00
2023-01-21T10:34:15.671Z,51.20
2023-01-21T10:36:42.937Z,51.20
2023-01-21T10:38:58.363Z,51.20
2023-01-21T10:41:12.661Z,51.60
2023-01-21T10:43:31.724Z,52.00
2023-01-21T10:45:49.769Z,52.30
2023-01-21T10:48:06.112Z,52.50
2023-01-21T10:50:27.959Z,52.80
2023-01-21T10:52:41.459Z,53.20
2023-01-21T10:54:55.042Z,53.50
2023-01-21T10:57:10.623Z,54.20
2023-01-21T10:59:20.412Z,56.90
2023-01-21T11:01:32.034Z,56.70
2023-01-21T11:03:44.760Z,56.70
2023-01-21T11:05:52.249Z,57.70
2023-01-21T11:07:59.998Z,58.30
2023-01-21T11:10:08.814Z,58.80
2023-01-21T11:12:19.119Z,60.10
2023-01-21T11:14:29.103Z,61.50
2023-01-21T11:16:39.098Z,61.00
2023-01-21T11:18:47.933Z,62.90
2023-01-21T11:20:54.963Z,62.50
2023-01-21T11:23:02.451Z,61.90
2023-01-21T11:25:30.892Z,61.90
2023-01-21T11:27:40.111Z,65.10
2023-01-21T11:29:47.396Z,65.20
2023-01-21T11:32:02.912Z,65.30
2023-01-21T11:34:17.146Z,65.30
2023-01-21T11:36:24.662Z,64.50
2023-01-21T11:38:37.123Z,63.60
2023-01-21T11:40:44.143Z,63.80
2023-01-21T11:42:53.474Z,65.70
2023-01-21T11:45:02.442Z,64.50
2023-01-21T11:47:37.070Z,66.60
2023-01-21T11:49:50.945Z,68.00
2023-01-21T11:52:19.902Z,66.00
2023-01-21T11:54:27.703Z,65.50
2023-01-21T11:56:34.725Z,65.50
2023-01-21T11:58:44.313Z,66.10
2023-01-21T12:00:54.065Z,66.20
2023-01-21T12:03:03.996Z,66.10
2023-01-21T12:05:19.019Z,66.40
2023-01-21T12:07:30.559Z,68.10
2023-01-21T12:09:37.924Z,69.10
2023-01-21T12:11:45.155Z,69.40
2023-01-21T12:14:00.956Z,70.00
2023-01-21T12:16:30.051Z,70.40
2023-01-21T12:18:53.154Z,69.20
2023-01-21T12:21:07.303Z,69.40
2023-01-21T12:23:36.089Z,70.50
2023-01-21T12:25:49.467Z,71.60
2023-01-21T12:28:16.469Z,71.40
2023-01-21T12:30:35.960Z,71.70
2023-01-21T12:32:47.054Z,72.00
2023-01-21T12:34:58.557Z,72.50
2023-01-21T12:37:15.649Z,73.10
2023-01-21T12:39:28.951Z,73.20
2023-01-21T12:41:37.693Z,73.40
2023-01-21T12:43:47.654Z,73.80
2023-01-21T12:45:58.917Z,74.70
2023-01-21T12:48:13.114Z,73.90
2023-01-21T12:50:31.918Z,74.60
2023-01-21T12:52:47.240Z,75.00
2023-01-21T12:55:02.050Z,75.40
2023-01-21T12:57:19.371Z,75.50
2023-01-21T12:59:33.213Z,75.50
2023-01-21T13:01:55.106Z,75.50
2023-01-21T13:04:13.838Z,75.80
2023-01-21T13:06:38.016Z,75.10
2023-01-21T13:09:11.716Z,75.40
2023-01-21T13:11:23.876Z,75.50
2023-01-21T13:13:36.837Z,75.70
2023-01-21T13:15:46.988Z,75.70
2023-01-21T13:17:58.725Z,76.00
2023-01-21T13:20:16.193Z,76.20
2023-01-21T13:22:37.717Z,76.10
2023-01-21T13:25:15.420Z,76.50
2023-01-21T13:27:26.791Z,76.50
2023-01-21T13:29:45.247Z,76.50
2023-01-21T13:31:59.942Z,75.40
2023-01-21T13:34:17.162Z,74.80
2023-01-21T13:36:38.019Z,76.00
2023-01-21T13:38:52.315Z,76.40
2023-01-21T13:41:08.917Z,76.60
2023-01-21T13:43:39.651Z,77.20
2023-01-21T13:46:00.092Z,77.40
2023-01-21T13:48:28.353Z,77.80
2023-01-21T13:50:53.396Z,78.20
2023-01-21T13:53:15.960Z,78.10
2023-01-21T13:55:34.662Z,78.70
2023-01-21T13:58:02.650Z,78.40
2023-01-21T14:00:15.708Z,78.90
2023-01-21T14:02:26.485Z,79.00
2023-01-21T14:04:40.612Z,79.00
2023-01-21T14:06:54.092Z,79.40
2023-01-21T14:09:04.177Z,79.90
2023-01-21T14:11:16.989Z,79.70
2023-01-21T14:14:04.331Z,80.40
2023-01-21T14:16:43.026Z,81.60
2023-01-21T14:19:12.042Z,81.40
2023-01-21T14:21:31.718Z,81.30
2023-01-21T14:24:07.315Z,81.10
2023-01-21T14:26:27.295Z,81.60
2023-01-21T14:28:43.439Z,82.00
2023-01-21T14:30:54.433Z,81.80
2023-01-21T14:33:04.442Z,82.10
2023-01-21T14:35:22.953Z,81.80
2023-01-21T14:37:34.855Z,82.30
2023-01-21T14:39:52.318Z,82.20
2023-01-21T14:42:05.542Z,82.60
2023-01-21T14:44:41.865Z,82.50
2023-01-21T14:47:15.765Z,82.90
2023-01-21T14:49:43.431Z,83.30
2023-01-21T14:51:54.499Z,83.00
2023-01-21T14:54:06.088Z,82.60
2023-01-21T14:56:20.337Z,82.60
2023-01-21T14:58:29.976Z,82.70
2023-01-21T15:00:40.133Z,82.80
2023-01-21T15:02:49.882Z,82.60
2023-01-21T15:04:58.691Z,82.90
2023-01-21T15:07:11.393Z,83.60
2023-01-21T15:09:25.899Z,84.00
2023-01-21T15:11:37.688Z,84.40
2023-01-21T15:13:45.124Z,84.60
2023-01-21T15:18:37.689Z,84.90
2023-01-21T15:20:51.924Z,84.70
2023-01-21T15:23:08.076Z,84.50
2023-01-21T15:25:23.804Z,84.60
2023-01-21T15:27:32.726Z,84.60
2023-01-21T15:29:41.240Z,84.40
2023-01-21T15:31:49.074Z,84.60
2023-01-21T15:34:02.513Z,84.50
2023-01-21T15:36:21.683Z,83.90
2023-01-21T15:38:29.216Z,83.50
2023-01-21T15:40:42.292Z,83.60
2023-01-21T15:42:57.760Z,83.80
2023-01-21T15:45:32.388Z,84.10
2023-01-21T15:47:57.026Z,84.60
2023-01-21T15:50:11.379Z,84.40
2023-01-21T15:52:36.735Z,84.40
2023-01-21T15:54:52.366Z,84.30
2023-01-21T15:57:07.894Z,84.30
2023-01-21T15:59:30.030Z,84.50
2023-01-21T16:01:39.791Z,84.90
2023-01-21T16:03:50.485Z,85.10
2023-01-21T16:06:05.763Z,84.90
2023-01-21T16:08:24.146Z,85.20
2023-01-21T16:10:35.372Z,85.20
2023-01-21T16:12:50.898Z,85.30
2023-01-21T16:15:07.705Z,85.40
2023-01-21T16:17:21.426Z,85.30
2023-01-21T16:19:32.378Z,85.30
2023-01-21T16:21:43.508Z,85.00
2023-01-21T16:23:53.328Z,85.30
2023-01-21T16:26:00.817Z,85.20
2023-01-21T16:28:08.180Z,85.40
2023-01-21T16:30:18.458Z,85.50
2023-01-21T16:32:25.742Z,85.50
2023-01-21T16:34:45.151Z,85.70
2023-01-21T16:36:54.083Z,85.40
2023-01-21T16:39:08.740Z,85.60
2023-01-21T16:41:28.624Z,85.70
2023-01-21T16:43:37.146Z,86.20
2023-01-21T16:45:50.853Z,86.10
2023-01-21T16:47:59.953Z,86.00
2023-01-21T16:50:20.336Z,85.80
2023-01-21T16:52:29.364Z,85.80
2023-01-21T16:54:36.693Z,85.70
2023-01-21T16:56:50.953Z,85.60
2023-01-21T16:58:58.379Z,85.70
2023-01-21T17:01:08.667Z,85.80
2023-01-21T17:03:17.299Z,85.70
2023-01-21T17:05:24.567Z,85.80
2023-01-21T17:07:36.428Z,86.10
2023-01-21T17:09:43.418Z,85.90
2023-01-21T17:11:51.092Z,85.80
2023-01-21T17:13:58.123Z,85.90
2023-01-21T17:16:06.590Z,85.80
2023-01-21T17:18:20.729Z,85.40
2023-01-21T17:20:41.325Z,85.60
2023-01-21T17:22:50.093Z,86.20
2023-01-21T17:25:09.512Z,86.20
2023-01-21T17:27:21.352Z,86.30
2023-01-21T17:29:32.188Z,86.00
2023-01-21T17:31:42.317Z,86.10
2023-01-21T17:34:03.126Z,86.30
2023-01-21T17:36:12.351Z,86.40
2023-01-21T17:38:32.743Z,86.50
2023-01-21T17:40:43.251Z,86.60
2023-01-21T17:42:50.484Z,86.70
2023-01-21T17:45:00.586Z,86.90
2023-01-21T17:47:07.699Z,87.00
2023-01-21T17:49:20.682Z,86.20
2023-01-21T17:51:29.565Z,86.30
2023-01-21T17:53:45.895Z,86.10
2023-01-21T17:56:04.856Z,86.40
2023-01-21T17:58:39.266Z,87.20
2023-01-21T18:00:47.792Z,87.60
2023-01-21T18:02:54.676Z,88.00
2023-01-21T18:05:01.745Z,88.20
2023-01-21T18:07:18.653Z,88.10
2023-01-21T18:09:29.370Z,88.60
2023-01-21T18:11:36.245Z,88.80
2023-01-21T18:13:43.486Z,89.10
2023-01-21T18:15:52.681Z,89.00
2023-01-21T18:18:03.316Z,88.70
2023-01-21T18:20:18.875Z,88.40
2023-01-21T18:22:27.832Z,88.00
2023-01-21T18:24:38.266Z,88.40
2023-01-21T18:26:45.150Z,88.00
2023-01-21T18:28:52.233Z,88.10
2023-01-21T18:31:00.596Z,88.00
2023-01-21T18:33:08.092Z,88.50
2023-01-21T18:35:17.516Z,88.20
2023-01-21T18:37:24.951Z,88.10
2023-01-21T18:39:31.807Z,88.00
2023-01-21T18:41:40.699Z,87.80
2023-01-21T18:43:47.518Z,88.10
2023-01-21T18:45:54.924Z,88.70
2023-01-21T18:48:02.093Z,88.90
2023-01-21T18:50:12.447Z,89.60
2023-01-21T18:52:20.550Z,89.80
2023-01-21T18:54:27.829Z,90.00
2023-01-21T18:56:34.706Z,89.80
2023-01-21T18:58:43.790Z,89.40
2023-01-21T19:00:50.755Z,89.10
2023-01-21T19:02:59.325Z,89.00
2023-01-21T19:05:06.195Z,88.80
2023-01-21T19:07:17.772Z,88.70
2023-01-21T19:09:26.040Z,88.50
2023-01-21T19:11:33.221Z,88.50
2023-01-21T19:13:40.144Z,88.50
2023-01-21T19:15:50.017Z,88.50
2023-01-21T19:17:58.349Z,88.50
2023-01-21T19:20:05.384Z,88.50
2023-01-21T19:22:16.964Z,88.40
2023-01-21T19:24:24.395Z,88.70
2023-01-21T19:26:31.477Z,89.20
2023-01-21T19:28:38.914Z,89.90
2023-01-21T19:30:50.495Z,90.20
2023-01-21T19:32:58.714Z,90.50
2023-01-21T19:35:05.838Z,90.60
2023-01-21T19:37:16.549Z,90.30
2023-01-21T19:39:26.378Z,90.10
2023-01-21T19:41:33.676Z,90.10
2023-01-21T19:43:40.501Z,90.30
2023-01-21T19:45:49.320Z,90.80
2023-01-21T19:47:57.178Z,90.90
2023-01-21T19:50:04.909Z,90.50
2023-01-21T19:52:12.307Z,90.30
2023-01-21T19:54:19.616Z,90.10
2023-01-21T19:56:27.382Z,89.80
2023-01-21T19:58:35.072Z,89.60
2023-01-21T20:00:41.996Z,89.30
2023-01-21T20:02:50.562Z,88.80
2023-01-21T20:04:57.727Z,88.60
2023-01-21T20:07:04.616Z,89.20
2023-01-21T20:09:18.799Z,90.00
2023-01-21T20:11:25.751Z,90.40
2023-01-21T20:13:37.424Z,90.60
2023-01-21T20:15:45.939Z,90.40
2023-01-21T20:17:56.551Z,89.30
2023-01-21T20:20:03.423Z,89.30
2023-01-21T20:22:10.709Z,89.70
2023-01-21T20:24:17.637Z,90.10
2023-01-21T20:26:28.143Z,90.10
2023-01-21T20:28:40.751Z,89.90
2023-01-21T20:30:48.252Z,89.70
2023-01-21T20:32:57.009Z,89.50
2023-01-21T20:35:04.498Z,89.50
2023-01-21T20:37:13.779Z,89.50
2023-01-21T20:39:21.063Z,89.30
2023-01-21T20:41:28.092Z,89.00
2023-01-21T20:43:35.582Z,88.80
2023-01-21T20:45:46.108Z,88.40
2023-01-21T20:47:58.032Z,88.90
2023-01-21T20:50:04.906Z,90.00
2023-01-21T20:52:14.342Z,90.20
2023-01-21T20:54:21.215Z,90.10
2023-01-21T20:56:30.855Z,89.80
2023-01-21T20:58:37.831Z,89.70
2023-01-21T21:00:46.864Z,90.00
2023-01-21T21:02:56.449Z,89.80
2023-01-21T21:05:05.415Z,89.70
2023-01-21T21:07:17.720Z,89.60
2023-01-21T21:09:24.900Z,89.70
2023-01-21T21:11:31.840Z,89.60
2023-01-21T21:13:39.518Z,89.60
2023-01-21T21:15:47.110Z,89.80
2023-01-21T21:17:54.244Z,90.10
2023-01-21T21:20:01.065Z,90.30
2023-01-21T21:22:10.172Z,90.00
2023-01-21T21:24:16.912Z,89.30
2023-01-21T21:26:25.833Z,89.20
2023-01-21T21:28:32.656Z,89.30
2023-01-21T21:30:39.971Z,89.40
2023-01-21T21:32:47.160Z,89.30
2023-01-21T21:34:58.096Z,88.60
2023-01-21T21:37:05.019Z,88.70
2023-01-21T21:39:20.136Z,89.10
2023-01-21T21:41:45.183Z,89.10
2023-01-21T21:43:52.166Z,89.60
2023-01-21T21:46:15.907Z,89.70
2023-01-21T21:48:42.930Z,89.70
2023-01-21T21:50:57.419Z,89.30
2023-01-21T21:53:04.359Z,89.20
2023-01-21T21:55:16.698Z,88.90
2023-01-21T21:57:23.790Z,88.80
2023-01-21T21:59:31.078Z,88.60
2023-01-21T22:01:38.307Z,88.20
2023-01-21T22:03:45.911Z,87.90
2023-01-21T22:05:56.049Z,87.80
2023-01-21T22:08:04.714Z,88.40
2023-01-21T22:10:14.967Z,88.90
2023-01-21T22:12:22.106Z,88.50
2023-01-21T22:14:29.179Z,88.10
2023-01-21T22:16:36.812Z,88.20
2023-01-21T22:18:43.950Z,88.20
2023-01-21T22:20:52.925Z,88.30
2023-01-21T22:22:59.739Z,88.50
2023-01-21T22:25:07.085Z,88.60
2023-01-21T22:27:15.699Z,88.50
2023-01-21T22:29:22.838Z,88.30
2023-01-21T22:31:31.018Z,88.50
2023-01-21T22:33:38.787Z,88.80
2023-01-21T22:35:46.217Z,88.90
2023-01-21T22:37:53.422Z,89.00
2023-01-21T22:40:00.362Z,88.90
2023-01-21T22:42:07.608Z,88.70
2023-01-21T22:44:16.272Z,89.00
2023-01-21T22:46:24.895Z,88.80
2023-01-21T22:48:33.554Z,88.60
2023-01-21T22:50:45.494Z,88.60
2023-01-21T22:52:52.636Z,88.60
2023-01-21T22:55:00.034Z,88.80
2023-01-21T22:57:06.990Z,88.90
2023-01-21T22:59:16.165Z,89.00
2023-01-21T23:01:27.710Z,89.10
2023-01-21T23:03:35.206Z,89.10
2023-01-21T23:05:42.065Z,89.20
2023-01-21T23:07:49.202Z,89.50
2023-01-21T23:09:56.080Z,89.60
2023-01-21T23:12:03.409Z,89.50
2023-01-21T23:14:11.514Z,89.60
2023-01-21T23:16:22.031Z,89.50
2023-01-21T23:18:30.481Z,89.30
2023-01-21T23:20:37.415Z,89.80
2023-01-21T23:22:45.007Z,90.30
2023-01-21T23:24:51.850Z,90.50
2023-01-21T23:26:59.158Z,90.90
2023-01-21T23:29:06.695Z,91.50
2023-01-21T23:31:16.378Z,91.50
2023-01-21T23:33:25.363Z,90.60
2023-01-21T23:35:34.258Z,90.20
2023-01-21T23:37:41.823Z,90.20
2023-01-21T23:39:48.847Z,90.80
2023-01-21T23:41:55.979Z,91.60
2023-01-21T23:44:03.762Z,91.90
2023-01-21T23:46:12.081Z,91.90
2023-01-21T23:48:19.300Z,91.90
2023-01-21T23:50:27.959Z,91.90
2023-01-21T23:52:35.265Z,91.70
2023-01-21T23:54:42.243Z,91.70
2023-01-21T23:56:49.476Z,92.30
2023-01-21T23:58:56.809Z,92.50
